Time;durP1;ratioP1;P1;durP2;ratioP2;P2;SDS_P1;SDS_P2;PMS_P1;PMS_P2;Temp;Humidity;BMP_temperature;BMP_pressure;BME280_temperature;BME280_humidity;BME280_pressure;Samples;Min_cycle;Max_cycle;Signal;HPM_P1;HPM_P2
2022/10/29 00:01:55;;;;;;;13.57;10.70;;;18.40;99.90;;;;;;5013609;28;20197;-72
2022/10/29 00:04:21;;;;;;;20.87;12.10;;;18.40;99.90;;;;;;5014250;28;20272;-73
2022/10/29 00:06:47;;;;;;;12.67;11.23;;;18.40;99.90;;;;;;5011959;28;20195;-72
2022/10/29 00:09:13;;;;;;;16.43;10.83;;;18.40;99.90;;;;;;5010038;28;20244;-73
2022/10/29 00:11:39;;;;;;;13.07;10.50;;;18.40;99.90;;;;;;5010146;28;20920;-73
2022/10/29 00:14:05;;;;;;;16.50;12.00;;;18.50;99.90;;;;;;5004013;28;20434;-73
2022/10/29 00:16:37;;;;;;;15.43;10.90;;;18.40;99.90;;;;;;5011880;28;20183;-73
2022/10/29 00:19:03;;;;;;;12.73;11.40;;;18.50;99.90;;;;;;5013591;28;20187;-73
2022/10/29 00:21:29;;;;;;;17.83;13.10;;;18.40;99.90;;;;;;5012604;28;20438;-73
2022/10/29 00:23:56;;;;;;;14.83;11.97;;;18.40;99.90;;;;;;5011782;28;20560;-73
2022/10/29 00:26:23;;;;;;;15.30;11.90;;;18.40;99.90;;;;;;5029991;28;20417;-73
2022/10/29 00:28:52;;;;;;;19.53;12.57;;;18.40;99.90;;;;;;5008330;28;20430;-73
2022/10/29 00:31:18;;;;;;;14.30;12.10;;;18.40;99.90;;;;;;5013090;28;20477;-72
2022/10/29 00:33:44;;;;;;;14.40;11.30;;;18.40;99.90;;;;;;5010409;28;20496;-73
2022/10/29 00:36:13;;;;;;;15.20;11.87;;;18.40;99.90;;;;;;5015189;28;20204;-73
2022/10/29 00:38:39;;;;;;;12.93;11.57;;;18.40;99.90;;;;;;4995994;28;20399;-73
2022/10/29 00:41:06;;;;;;;21.23;13.23;;;18.50;99.90;;;;;;5013163;28;20414;-73
2022/10/29 00:43:34;;;;;;;16.73;12.50;;;18.40;99.90;;;;;;5013701;28;20421;-73
2022/10/29 00:46:15;;;;;;;14.37;11.70;;;18.40;99.90;;;;;;5008962;28;20457;-73
2022/10/29 00:48:51;;;;;;;14.50;12.30;;;18.40;99.90;;;;;;4994558;28;20426;-73
2022/10/29 00:51:17;;;;;;;14.83;10.90;;;18.40;99.90;;;;;;4994068;28;20899;-73
2022/10/29 00:53:55;;;;;;;14.97;11.60;;;18.40;99.90;;;;;;5009651;28;20437;-73
2022/10/29 00:56:23;;;;;;;15.87;11.40;;;18.40;99.90;;;;;;5023799;28;20429;-73
2022/10/29 00:58:49;;;;;;;13.03;10.47;;;18.40;99.90;;;;;;5009156;28;21987;-75
2022/10/29 01:01:15;;;;;;;11.53;10.33;;;18.50;99.90;;;;;;5008269;28;20448;-70
2022/10/29 01:03:40;;;;;;;15.43;10.43;;;18.50;99.90;;;;;;5006433;28;20180;-70
2022/10/29 01:06:07;;;;;;;13.63;11.80;;;18.50;99.90;;;;;;5011509;28;20495;-70
2022/10/29 01:08:33;;;;;;;17.63;12.53;;;18.50;99.90;;;;;;4975656;28;20248;-68
2022/10/29 01:11:17;;;;;;;18.13;12.63;;;18.50;99.90;;;;;;5010064;28;21146;-68
2022/10/29 01:13:52;;;;;;;15.43;11.90;;;18.50;99.90;;;;;;5011866;28;20218;-68
2022/10/29 01:16:24;;;;;;;14.73;11.53;;;18.50;99.90;;;;;;5004340;28;20421;-69
2022/10/29 01:18:56;;;;;;;12.97;10.97;;;18.50;99.90;;;;;;5010591;28;20929;-69
2022/10/29 01:21:31;;;;;;;13.63;11.47;;;18.50;99.90;;;;;;5026069;28;20437;-69
2022/10/29 01:24:06;;;;;;;12.73;11.33;;;18.50;99.90;;;;;;5010044;28;20469;-69
2022/10/29 01:26:51;;;;;;;22.00;11.23;;;18.50;99.90;;;;;;5011417;28;20472;-69
2022/10/29 01:29:37;;;;;;;11.20;10.00;;;18.50;99.90;;;;;;4987018;28;20473;-68
2022/10/29 01:32:12;;;;;;;12.00;10.37;;;18.40;99.90;;;;;;5010222;28;20476;-68
2022/10/29 01:34:57;;;;;;;14.20;10.27;;;18.50;99.90;;;;;;5009569;28;20457;-68
2022/10/29 01:37:43;;;;;;;19.43;11.20;;;18.50;99.90;;;;;;5010991;28;20433;-68
2022/10/29 01:40:22;;;;;;;12.77;9.90;;;18.50;99.90;;;;;;4997870;28;20429;-68
2022/10/29 01:43:03;;;;;;;15.23;11.70;;;18.40;99.90;;;;;;5012154;28;20484;-68
2022/10/29 01:45:36;;;;;;;11.63;10.40;;;18.50;99.90;;;;;;5012123;28;20457;-68
2022/10/29 01:48:07;;;;;;;11.30;10.20;;;18.40;99.90;;;;;;5011177;28;20929;-68
2022/10/29 01:50:36;;;;;;;12.30;10.80;;;18.40;99.90;;;;;;5012259;28;20438;-68
2022/10/29 01:53:04;;;;;;;11.50;10.40;;;18.40;99.90;;;;;;5009570;28;20430;-68
2022/10/29 01:55:34;;;;;;;16.60;11.53;;;18.50;99.90;;;;;;5011440;28;20465;-68
2022/10/29 01:58:02;;;;;;;14.37;10.07;;;18.40;99.90;;;;;;5009166;28;20521;-68
2022/10/29 02:00:50;;;;;;;12.70;10.70;;;18.40;99.90;;;;;;5012141;28;20434;-68
2022/10/29 02:03:49;;;;;;;12.73;10.03;;;18.40;99.90;;;;;;5011325;28;20703;-68
2022/10/29 02:06:52;;;;;;;13.53;9.77;;;18.40;99.90;;;;;;5009881;28;21046;-69
2022/10/29 02:09:35;;;;;;;11.47;9.63;;;18.40;99.90;;;;;;5009815;28;20421;-68
2022/10/29 02:12:15;;;;;;;12.00;9.53;;;18.40;99.90;;;;;;4998711;28;20429;-68
2022/10/29 02:15:08;;;;;;;12.30;9.10;;;18.40;99.90;;;;;;5011624;28;20484;-69
2022/10/29 02:17:34;;;;;;;13.40;10.40;;;18.30;99.90;;;;;;4998507;28;20437;-68
2022/10/29 02:20:09;;;;;;;11.70;10.50;;;18.30;99.90;;;;;;5011073;28;20426;-68
2022/10/29 02:22:35;;;;;;;13.73;10.47;;;18.30;99.90;;;;;;5011003;28;20425;-68
2022/10/29 02:25:03;;;;;;;13.70;11.00;;;18.30;99.90;;;;;;5011348;28;20507;-68
2022/10/29 02:27:29;;;;;;;13.50;10.23;;;18.20;99.90;;;;;;5010388;28;20201;-68
2022/10/29 02:29:54;;;;;;;15.67;10.37;;;18.20;99.90;;;;;;5010216;28;20525;-68
2022/10/29 02:32:20;;;;;;;13.50;10.50;;;18.20;99.90;;;;;;5005429;28;20276;-68
2022/10/29 02:34:46;;;;;;;14.67;10.47;;;18.20;99.90;;;;;;5009768;28;20277;-68
2022/10/29 02:37:12;;;;;;;14.73;11.10;;;18.10;99.90;;;;;;5003003;28;20629;-68
2022/10/29 02:39:37;;;;;;;12.57;11.27;;;18.10;99.90;;;;;;5007741;28;20550;-68
2022/10/29 02:42:03;;;;;;;12.90;10.97;;;18.10;99.90;;;;;;5009546;28;20191;-68
2022/10/29 02:44:29;;;;;;;13.63;10.77;;;18.10;99.90;;;;;;4996086;28;20317;-68
2022/10/29 02:46:54;;;;;;;12.83;10.83;;;18.00;99.90;;;;;;5012158;28;20187;-68
2022/10/29 02:49:20;;;;;;;16.30;11.27;;;18.00;99.90;;;;;;5009858;28;20178;-68
2022/10/29 02:51:46;;;;;;;11.83;10.43;;;18.00;99.90;;;;;;5011503;28;20194;-68
2022/10/29 02:54:12;;;;;;;15.57;11.80;;;18.00;99.90;;;;;;5007876;28;20309;-68
2022/10/29 02:56:37;;;;;;;18.70;10.80;;;18.00;99.90;;;;;;5009807;28;20201;-68
2022/10/29 02:59:03;;;;;;;17.20;10.97;;;17.90;99.90;;;;;;5010578;28;20218;-68
2022/10/29 03:01:29;;;;;;;12.00;10.17;;;17.90;99.90;;;;;;5009370;28;20558;-68
2022/10/29 03:03:54;;;;;;;15.17;10.80;;;17.90;99.90;;;;;;5021409;28;20249;-68
2022/10/29 03:06:20;;;;;;;15.37;10.80;;;17.90;99.90;;;;;;5009611;28;20341;-68
2022/10/29 03:08:47;;;;;;;15.77;11.33;;;17.90;99.90;;;;;;5009712;28;20249;-68
2022/10/29 03:11:12;;;;;;;11.73;10.50;;;17.90;99.90;;;;;;5009504;28;20430;-68
2022/10/29 03:13:38;;;;;;;13.27;10.47;;;17.90;99.90;;;;;;5010139;28;20422;-68
2022/10/29 03:16:04;;;;;;;11.33;10.13;;;17.90;99.90;;;;;;5009194;28;20252;-68
2022/10/29 03:18:30;;;;;;;12.93;10.27;;;17.80;99.90;;;;;;5003387;28;20262;-68
2022/10/29 03:20:56;;;;;;;15.10;10.83;;;17.80;99.90;;;;;;5006572;28;20430;-68
2022/10/29 03:23:22;;;;;;;17.90;10.83;;;17.80;99.90;;;;;;5023165;28;20425;-68
2022/10/29 03:25:54;;;;;;;11.80;10.70;;;17.70;99.90;;;;;;5008042;28;20214;-68
2022/10/29 03:28:21;;;;;;;13.30;10.50;;;17.70;99.90;;;;;;5005698;28;20310;-68
2022/10/29 03:30:47;;;;;;;12.03;10.03;;;17.70;99.90;;;;;;5008365;28;20430;-68
2022/10/29 03:33:13;;;;;;;14.80;11.00;;;17.70;99.90;;;;;;5008299;28;20820;-68
2022/10/29 03:35:39;;;;;;;14.77;11.47;;;17.70;99.90;;;;;;5010964;28;20452;-68
2022/10/29 03:38:05;;;;;;;13.07;11.53;;;17.70;99.90;;;;;;5010341;28;20476;-68
2022/10/29 03:40:31;;;;;;;14.60;11.50;;;17.70;99.90;;;;;;5009047;28;20433;-68
2022/10/29 03:42:57;;;;;;;18.00;11.30;;;17.60;99.90;;;;;;5012400;28;20520;-68
2022/10/29 03:45:23;;;;;;;11.50;10.30;;;17.60;99.90;;;;;;5008584;28;20786;-68
2022/10/29 03:47:48;;;;;;;12.53;10.63;;;17.60;99.90;;;;;;5015195;28;20286;-68
2022/10/29 03:50:14;;;;;;;13.80;10.73;;;17.60;99.90;;;;;;5014134;28;20183;-68
2022/10/29 03:52:40;;;;;;;11.90;10.60;;;17.50;99.90;;;;;;5013437;28;20425;-68
2022/10/29 03:55:06;;;;;;;14.27;11.47;;;17.50;99.90;;;;;;5013780;28;20788;-69
2022/10/29 03:57:32;;;;;;;14.53;11.17;;;17.50;99.90;;;;;;5003447;28;20183;-69
2022/10/29 03:59:59;;;;;;;12.73;10.33;;;17.50;99.90;;;;;;5013642;28;20426;-68
2022/10/29 04:02:25;;;;;;;18.13;11.93;;;17.50;99.90;;;;;;5011149;28;20457;-68
2022/10/29 04:04:51;;;;;;;13.57;11.00;;;17.50;99.90;;;;;;5013153;28;20530;-68
2022/10/29 04:07:16;;;;;;;12.60;11.20;;;17.50;99.90;;;;;;5014196;28;20209;-68
2022/10/29 04:09:42;;;;;;;13.13;9.97;;;17.50;99.90;;;;;;5013934;28;20194;-68
2022/10/29 04:12:08;;;;;;;13.90;10.57;;;17.60;99.90;;;;;;5028428;28;20183;-68
2022/10/29 04:14:34;;;;;;;14.50;11.13;;;17.60;99.90;;;;;;5027283;28;20187;-68
2022/10/29 04:16:59;;;;;;;15.33;10.53;;;17.50;99.90;;;;;;5028646;28;20476;-68
2022/10/29 04:19:25;;;;;;;11.10;10.00;;;17.50;99.90;;;;;;5011360;28;20179;-68
2022/10/29 04:21:51;;;;;;;14.17;10.90;;;17.50;99.90;;;;;;5014752;28;20182;-68
2022/10/29 04:24:17;;;;;;;13.13;10.23;;;17.50;99.90;;;;;;5012220;28;20210;-68
2022/10/29 04:26:42;;;;;;;13.07;11.23;;;17.50;99.90;;;;;;5012824;28;20493;-68
2022/10/29 04:29:08;;;;;;;15.40;12.07;;;17.50;99.90;;;;;;5011493;28;20213;-68
2022/10/29 04:31:35;;;;;;;13.73;12.33;;;17.50;99.90;;;;;;5011214;28;20233;-69
2022/10/29 04:34:00;;;;;;;17.23;12.57;;;17.40;99.90;;;;;;5013234;28;20438;-68
2022/10/29 04:36:26;;;;;;;15.70;11.63;;;17.40;99.90;;;;;;5011361;28;20536;-68
2022/10/29 04:38:52;;;;;;;15.27;12.73;;;17.40;99.90;;;;;;5012932;28;20319;-68
2022/10/29 04:41:17;;;;;;;14.00;12.60;;;17.40;99.90;;;;;;5011544;28;20622;-68
2022/10/29 04:43:43;;;;;;;15.97;13.80;;;17.40;99.90;;;;;;5027207;28;20271;-68
2022/10/29 04:46:09;;;;;;;13.17;11.33;;;17.40;99.90;;;;;;5009664;28;20191;-68
2022/10/29 04:48:35;;;;;;;17.60;10.93;;;17.40;99.90;;;;;;5011659;28;20533;-68
2022/10/29 04:51:01;;;;;;;15.50;11.80;;;17.40;99.90;;;;;;5012376;28;20435;-68
2022/10/29 04:53:27;;;;;;;12.60;10.87;;;17.40;99.90;;;;;;5025938;28;20263;-68
2022/10/29 04:56:00;;;;;;;13.20;10.87;;;17.40;99.90;;;;;;5011609;28;20704;-68
2022/10/29 04:58:26;;;;;;;17.37;11.60;;;17.40;99.90;;;;;;5001278;28;20425;-68
2022/10/29 05:00:51;;;;;;;17.67;12.27;;;17.40;99.90;;;;;;5008417;28;20442;-68
2022/10/29 05:03:17;;;;;;;21.53;11.60;;;17.30;99.90;;;;;;5010847;28;20430;-68
2022/10/29 05:05:43;;;;;;;13.87;12.40;;;17.40;99.90;;;;;;5011622;28;20663;-68
2022/10/29 05:08:10;;;;;;;18.87;11.00;;;17.30;99.90;;;;;;5010531;28;20191;-68
2022/10/29 05:10:38;;;;;;;14.03;11.20;;;17.30;99.90;;;;;;5008934;28;20230;-68
2022/10/29 05:13:06;;;;;;;13.57;11.40;;;17.30;99.90;;;;;;5009609;28;20516;-68
2022/10/29 05:15:33;;;;;;;16.50;12.77;;;17.30;99.90;;;;;;5009524;28;20434;-68
2022/10/29 05:17:59;;;;;;;17.93;11.03;;;17.30;99.90;;;;;;5012137;28;20524;-68
2022/10/29 05:20:25;;;;;;;15.50;12.13;;;17.30;99.90;;;;;;5011075;28;20433;-68
2022/10/29 05:23:02;;;;;;;15.10;11.10;;;17.30;99.90;;;;;;5011424;28;20480;-68
2022/10/29 05:25:29;;;;;;;12.83;11.47;;;17.30;99.90;;;;;;5010890;28;20544;-68
2022/10/29 05:28:11;;;;;;;13.33;12.00;;;17.30;99.90;;;;;;5011614;28;20517;-68
2022/10/29 05:30:36;;;;;;;13.80;11.33;;;17.30;99.90;;;;;;5005414;28;20827;-68
2022/10/29 05:33:06;;;;;;;13.40;11.73;;;17.30;99.90;;;;;;5011081;28;20457;-68
2022/10/29 05:35:32;;;;;;;13.10;11.87;;;17.30;99.90;;;;;;5011574;28;20589;-68
2022/10/29 05:37:59;;;;;;;15.40;12.80;;;17.30;99.90;;;;;;5012637;28;20401;-68
2022/10/29 05:40:25;;;;;;;16.90;12.47;;;17.30;99.90;;;;;;5007652;28;20756;-68
2022/10/29 05:42:51;;;;;;;15.83;12.00;;;17.20;99.90;;;;;;5012418;28;20486;-68
2022/10/29 05:45:17;;;;;;;15.87;13.43;;;17.30;99.90;;;;;;5010589;28;20953;-68
2022/10/29 05:47:43;;;;;;;15.90;12.60;;;17.30;99.90;;;;;;5013018;28;20237;-68
2022/10/29 05:50:10;;;;;;;15.77;11.43;;;17.30;99.90;;;;;;5011126;28;20453;-68
2022/10/29 05:52:36;;;;;;;15.27;12.43;;;17.30;99.90;;;;;;5009663;28;20430;-68
2022/10/29 05:55:02;;;;;;;12.53;11.23;;;17.30;99.90;;;;;;5013259;28;20422;-68
2022/10/29 05:57:28;;;;;;;17.80;13.17;;;17.30;99.90;;;;;;5008927;28;20913;-68
2022/10/29 05:59:53;;;;;;;13.17;11.07;;;17.30;99.90;;;;;;5000554;28;20437;-68
2022/10/29 06:02:19;;;;;;;12.67;11.23;;;17.30;99.90;;;;;;5011781;28;20437;-68
2022/10/29 06:04:45;;;;;;;21.07;11.97;;;17.30;99.90;;;;;;5011282;28;20202;-68
2022/10/29 06:07:11;;;;;;;14.90;11.93;;;17.30;99.90;;;;;;5011792;28;20190;-68
2022/10/29 06:09:36;;;;;;;13.27;11.97;;;17.30;99.90;;;;;;5006584;28;20262;-68
2022/10/29 06:12:02;;;;;;;15.27;12.00;;;17.30;99.90;;;;;;5009507;28;20222;-68
2022/10/29 06:14:28;;;;;;;13.57;11.93;;;17.30;99.90;;;;;;5009155;28;20658;-68
2022/10/29 06:16:53;;;;;;;13.47;11.73;;;17.30;99.90;;;;;;5007725;28;20217;-69
2022/10/29 06:19:19;;;;;;;15.10;12.03;;;17.40;99.90;;;;;;5006203;28;20217;-68
2022/10/29 06:21:45;;;;;;;14.30;11.90;;;17.40;99.90;;;;;;5011966;28;20290;-68
2022/10/29 06:24:12;;;;;;;15.70;11.50;;;17.40;99.90;;;;;;5008785;28;20241;-69
2022/10/29 06:26:38;;;;;;;15.27;11.20;;;17.40;99.90;;;;;;5009977;28;20191;-69
2022/10/29 06:29:04;;;;;;;13.70;10.90;;;17.40;99.90;;;;;;5004363;28;20926;-69
2022/10/29 06:31:30;;;;;;;15.23;12.33;;;17.30;99.90;;;;;;4996998;28;20527;-69
2022/10/29 06:33:55;;;;;;;17.47;11.90;;;17.40;99.90;;;;;;5010544;28;20749;-69
2022/10/29 06:36:21;;;;;;;15.27;12.10;;;17.40;99.90;;;;;;5009216;28;20187;-68
2022/10/29 06:38:47;;;;;;;14.10;11.47;;;17.30;99.90;;;;;;5008382;28;20187;-67
2022/10/29 06:41:13;;;;;;;13.37;12.00;;;17.30;99.90;;;;;;5009437;28;20216;-68
2022/10/29 06:43:39;;;;;;;14.67;12.53;;;17.40;99.90;;;;;;5003188;28;20647;-69
2022/10/29 06:46:04;;;;;;;14.27;11.77;;;17.30;99.90;;;;;;5024921;28;20186;-69
2022/10/29 06:48:30;;;;;;;13.97;12.20;;;17.30;99.90;;;;;;5000469;28;20171;-69
2022/10/29 06:50:59;;;;;;;14.50;13.00;;;17.30;99.90;;;;;;5012271;28;20190;-70
2022/10/29 06:53:25;;;;;;;18.00;12.70;;;17.30;99.90;;;;;;5008721;28;20186;-68
2022/10/29 06:55:51;;;;;;;14.63;11.57;;;17.30;99.90;;;;;;5010311;28;20437;-70
2022/10/29 06:58:19;;;;;;;13.50;11.80;;;17.30;99.90;;;;;;5011681;28;20756;-73
2022/10/29 07:00:46;;;;;;;14.77;11.70;;;17.30;99.90;;;;;;5009046;28;20519;-71
2022/10/29 07:03:16;;;;;;;13.00;11.70;;;17.30;99.90;;;;;;5008297;28;22488;-71
2022/10/29 07:05:42;;;;;;;13.90;11.83;;;17.40;99.90;;;;;;4996579;28;20465;-72
2022/10/29 07:08:08;;;;;;;14.80;11.67;;;17.40;99.90;;;;;;4992508;28;20779;-71
2022/10/29 07:10:34;;;;;;;15.50;11.67;;;17.40;99.90;;;;;;5008380;28;20429;-71
2022/10/29 07:13:00;;;;;;;12.27;10.90;;;17.40;99.90;;;;;;5009572;28;20544;-71
2022/10/29 07:15:26;;;;;;;18.20;12.53;;;17.50;99.90;;;;;;5012731;28;20933;-71
2022/10/29 07:17:59;;;;;;;13.67;11.63;;;17.50;99.90;;;;;;5010556;28;20431;-71
2022/10/29 07:20:26;;;;;;;13.13;11.73;;;17.50;99.90;;;;;;5002914;28;20513;-71
2022/10/29 07:22:52;;;;;;;16.33;12.23;;;17.60;99.90;;;;;;5015226;28;20901;-71
2022/10/29 07:25:18;;;;;;;13.70;10.43;;;17.60;99.90;;;;;;5013192;28;20461;-71
2022/10/29 07:27:44;;;;;;;13.37;11.47;;;17.70;99.90;;;;;;5014539;28;20187;-71
2022/10/29 07:30:09;;;;;;;14.50;11.80;;;17.70;99.90;;;;;;5014766;28;20437;-71
2022/10/29 07:32:35;;;;;;;15.77;11.10;;;17.80;99.90;;;;;;5014117;28;20310;-71
2022/10/29 07:35:01;;;;;;;13.00;11.23;;;17.90;99.90;;;;;;5015475;28;20639;-71
2022/10/29 07:37:27;;;;;;;15.23;10.00;;;17.90;99.90;;;;;;5012265;28;20202;-71
2022/10/29 07:39:54;;;;;;;15.50;11.70;;;18.00;99.90;;;;;;5013086;28;20187;-71
2022/10/29 07:42:20;;;;;;;13.70;11.37;;;18.10;99.90;;;;;;5028465;28;20619;-73
2022/10/29 07:44:46;;;;;;;16.87;11.33;;;18.10;99.90;;;;;;5014397;28;20560;-72
2022/10/29 07:47:11;;;;;;;14.70;11.83;;;18.60;99.90;;;;;;5014282;28;20276;-73
2022/10/29 07:49:37;;;;;;;14.80;10.80;;;18.80;99.90;;;;;;5012724;28;20271;-69
2022/10/29 07:52:03;;;;;;;12.17;10.80;;;19.10;99.90;;;;;;5013738;28;20175;-70
2022/10/29 07:54:28;;;;;;;20.50;10.93;;;19.20;99.90;;;;;;5012295;28;20595;-69
2022/10/29 07:56:54;;;;;;;18.80;12.10;;;19.20;99.90;;;;;;5008908;28;20279;-70
2022/10/29 07:59:20;;;;;;;15.73;9.67;;;19.20;99.90;;;;;;5008543;28;20186;-72
2022/10/29 08:01:45;;;;;;;11.43;9.90;;;19.20;99.90;;;;;;5012559;28;20191;-70
2022/10/29 08:04:12;;;;;;;11.93;10.77;;;19.20;99.90;;;;;;5013147;28;20211;-67
2022/10/29 08:06:38;;;;;;;17.20;11.07;;;19.20;99.90;;;;;;5010011;28;20395;-68
2022/10/29 08:09:04;;;;;;;10.93;9.83;;;19.20;99.90;;;;;;5014925;28;20402;-68
2022/10/29 08:11:31;;;;;;;11.63;10.50;;;19.20;99.90;;;;;;5013322;28;20429;-68
2022/10/29 08:13:57;;;;;;;14.00;11.20;;;19.20;99.90;;;;;;5014033;28;20504;-68
2022/10/29 08:16:23;;;;;;;10.90;9.80;;;19.20;99.90;;;;;;5013610;28;20430;-69
